Terminal Aerodrome Forecast
Issued by NWS

Home | Current Version | Previous Version | Text Only | Print | Product List | Glossary On
Versions: 1 2 3 4 5 6 7 8 9 10 11 12 13 14 15 16 17 18 19 20
000
FTUS43 KDVN 301800 AAA
TAFBRL
TAF AMD
KBRL 301827Z 3018/0118 08007KT P6SM SCT025
     FM011200 13007KT 5SM BR BKN025 OVC070=

USA.gov is the U.S. government's official web portal to all federal, state and local government web resources and services.